sensor_id;sensor_type;location;lat;lon;timestamp;pressure;altitude;pressure_sealevel;temperature;humidity
30554;BME280;17335;50.720;7.452;2022-12-26T00:00:28;98825.41;;;11.63;100.00
30554;BME280;17335;50.720;7.452;2022-12-26T00:02:55;98819.84;;;11.57;100.00
30554;BME280;17335;50.720;7.452;2022-12-26T00:05:22;98825.41;;;11.63;100.00
30554;BME280;17335;50.720;7.452;2022-12-26T00:07:48;98829.59;;;11.58;100.00
30554;BME280;17335;50.720;7.452;2022-12-26T00:10:15;98821.34;;;11.51;100.00
30554;BME280;17335;50.720;7.452;2022-12-26T00:12:41;98826.09;;;11.57;100.00
30554;BME280;17335;50.720;7.452;2022-12-26T00:15:08;98825.06;;;11.50;100.00
30554;BME280;17335;50.720;7.452;2022-12-26T00:17:34;98824.72;;;11.53;100.00
30554;BME280;17335;50.720;7.452;2022-12-26T00:20:01;98820.72;;;11.57;100.00
30554;BME280;17335;50.720;7.452;2022-12-26T00:22:28;98828.41;;;11.52;100.00
30554;BME280;17335;50.720;7.452;2022-12-26T00:24:55;98824.72;;;11.53;100.00
30554;BME280;17335;50.720;7.452;2022-12-26T00:27:21;98834.50;;;11.62;100.00
30554;BME280;17335;50.720;7.452;2022-12-26T00:29:48;98838.84;;;11.63;100.00
30554;BME280;17335;50.720;7.452;2022-12-26T00:32:14;98826.91;;;11.58;100.00
30554;BME280;17335;50.720;7.452;2022-12-26T00:34:41;98818.50;;;11.53;100.00
30554;BME280;17335;50.720;7.452;2022-12-26T00:37:07;98824.38;;;11.56;100.00
30554;BME280;17335;50.720;7.452;2022-12-26T00:39:34;98818.69;;;11.59;100.00
30554;BME280;17335;50.720;7.452;2022-12-26T00:42:00;98829.09;;;11.54;100.00
30554;BME280;17335;50.720;7.452;2022-12-26T00:44:27;98832.44;;;11.56;100.00
30554;BME280;17335;50.720;7.452;2022-12-26T00:46:53;98829.09;;;11.54;100.00
30554;BME280;17335;50.720;7.452;2022-12-26T00:49:20;98832.25;;;11.50;100.00
30554;BME280;17335;50.720;7.452;2022-12-26T00:51:47;98820.97;;;11.38;100.00
30554;BME280;17335;50.720;7.452;2022-12-26T00:54:13;98823.00;;;11.44;100.00
30554;BME280;17335;50.720;7.452;2022-12-26T00:56:40;98821.00;;;11.46;100.00
30554;BME280;17335;50.720;7.452;2022-12-26T00:59:06;98835.47;;;11.45;100.00
30554;BME280;17335;50.720;7.452;2022-12-26T01:01:33;98839.78;;;11.38;100.00
30554;BME280;17335;50.720;7.452;2022-12-26T01:04:00;98838.44;;;11.34;100.00
30554;BME280;17335;50.720;7.452;2022-12-26T01:06:26;98836.13;;;11.47;100.00
30554;BME280;17335;50.720;7.452;2022-12-26T01:08:53;98837.13;;;11.46;100.00
30554;BME280;17335;50.720;7.452;2022-12-26T01:11:20;98825.19;;;11.40;100.00
30554;BME280;17335;50.720;7.452;2022-12-26T01:14:09;98832.91;;;11.35;100.00
30554;BME280;17335;50.720;7.452;2022-12-26T01:16:37;98831.06;;;11.44;100.00
30554;BME280;17335;50.720;7.452;2022-12-26T01:19:05;98835.81;;;11.50;100.00
30554;BME280;17335;50.720;7.452;2022-12-26T01:21:32;98849.94;;;11.52;100.00
30554;BME280;17335;50.720;7.452;2022-12-26T01:23:59;98855.31;;;11.52;100.00
30554;BME280;17335;50.720;7.452;2022-12-26T01:26:25;98869.72;;;11.51;100.00
30554;BME280;17335;50.720;7.452;2022-12-26T01:28:52;98871.13;;;11.55;100.00
30554;BME280;17335;50.720;7.452;2022-12-26T01:31:21;98869.41;;;11.54;100.00
30554;BME280;17335;50.720;7.452;2022-12-26T01:33:48;98869.56;;;11.53;100.00
30554;BME280;17335;50.720;7.452;2022-12-26T01:36:16;98875.00;;;11.61;100.00
30554;BME280;17335;50.720;7.452;2022-12-26T01:38:43;98876.97;;;11.51;100.00
30554;BME280;17335;50.720;7.452;2022-12-26T01:41:10;98874.28;;;11.51;100.00
30554;BME280;17335;50.720;7.452;2022-12-26T01:43:58;98874.44;;;11.49;100.00
30554;BME280;17335;50.720;7.452;2022-12-26T01:46:37;98874.28;;;11.51;100.00
30554;BME280;17335;50.720;7.452;2022-12-26T01:49:30;98875.63;;;11.55;100.00
30554;BME280;17335;50.720;7.452;2022-12-26T01:52:02;98876.81;;;11.52;100.00
30554;BME280;17335;50.720;7.452;2022-12-26T01:54:32;98878.63;;;11.52;100.00
30554;BME280;17335;50.720;7.452;2022-12-26T01:57:12;98866.69;;;11.46;100.00
30554;BME280;17335;50.720;7.452;2022-12-26T01:59:41;98870.91;;;11.49;100.00
30554;BME280;17335;50.720;7.452;2022-12-26T02:02:08;98867.03;;;11.51;100.00
30554;BME280;17335;50.720;7.452;2022-12-26T02:04:38;98873.09;;;11.53;100.00
30554;BME280;17335;50.720;7.452;2022-12-26T02:07:25;98866.72;;;11.54;100.00
30554;BME280;17335;50.720;7.452;2022-12-26T02:09:53;98866.88;;;11.53;100.00
30554;BME280;17335;50.720;7.452;2022-12-26T02:12:27;98876.66;;;11.54;100.00
30554;BME280;17335;50.720;7.452;2022-12-26T02:15:06;98867.72;;;11.53;100.00
30554;BME280;17335;50.720;7.452;2022-12-26T02:17:33;98873.44;;;11.50;100.00
30554;BME280;17335;50.720;7.452;2022-12-26T02:20:16;98867.53;;;11.47;100.00
30554;BME280;17335;50.720;7.452;2022-12-26T02:28:55;98897.28;;;11.53;100.00
30554;BME280;17335;50.720;7.452;2022-12-26T02:40:11;98883.88;;;11.61;100.00
30554;BME280;17335;50.720;7.452;2022-12-26T02:45:52;98871.28;;;11.54;100.00
30554;BME280;17335;50.720;7.452;2022-12-26T02:49:25;98870.75;;;11.50;100.00
30554;BME280;17335;50.720;7.452;2022-12-26T02:52:18;98878.47;;;11.53;100.00
30554;BME280;17335;50.720;7.452;2022-12-26T02:55:09;98878.66;;;11.60;100.00
30554;BME280;17335;50.720;7.452;2022-12-26T02:58:05;98877.69;;;11.61;100.00
30554;BME280;17335;50.720;7.452;2022-12-26T03:01:02;98886.88;;;11.58;100.00
30554;BME280;17335;50.720;7.452;2022-12-26T03:03:51;98889.75;;;11.57;100.00
30554;BME280;17335;50.720;7.452;2022-12-26T03:06:42;98886.53;;;11.53;100.00
30554;BME280;17335;50.720;7.452;2022-12-26T03:09:31;98884.72;;;11.54;100.00
30554;BME280;17335;50.720;7.452;2022-12-26T03:15:14;98891.41;;;11.50;100.00
30554;BME280;17335;50.720;7.452;2022-12-26T03:18:02;98886.84;;;11.42;100.00
30554;BME280;17335;50.720;7.452;2022-12-26T03:20:34;98879.81;;;11.49;100.00
30554;BME280;17335;50.720;7.452;2022-12-26T03:23:11;98881.31;;;11.52;100.00
30554;BME280;17335;50.720;7.452;2022-12-26T03:25:49;98879.47;;;11.44;100.00
30554;BME280;17335;50.720;7.452;2022-12-26T03:28:35;98881.50;;;11.50;100.00
30554;BME280;17335;50.720;7.452;2022-12-26T03:31:07;98884.50;;;11.47;100.00
30554;BME280;17335;50.720;7.452;2022-12-26T03:33:37;98887.88;;;11.49;100.00
30554;BME280;17335;50.720;7.452;2022-12-26T03:37:08;98875.59;;;11.47;100.00
30554;BME280;17335;50.720;7.452;2022-12-26T03:39:37;98864.00;;;11.46;100.00
30554;BME280;17335;50.720;7.452;2022-12-26T03:49:08;98879.31;;;11.45;100.00
30554;BME280;17335;50.720;7.452;2022-12-26T03:52:04;98890.03;;;11.45;100.00
30554;BME280;17335;50.720;7.452;2022-12-26T03:58:22;98873.75;;;11.47;100.00
30554;BME280;17335;50.720;7.452;2022-12-26T04:01:09;98889.38;;;11.43;100.00
30554;BME280;17335;50.720;7.452;2022-12-26T04:03:56;98890.84;;;11.38;100.00
30554;BME280;17335;50.720;7.452;2022-12-26T04:06:56;98898.72;;;11.31;100.00
30554;BME280;17335;50.720;7.452;2022-12-26T04:09:50;98884.94;;;11.34;100.00
30554;BME280;17335;50.720;7.452;2022-12-26T04:12:37;98874.53;;;11.31;100.00
30554;BME280;17335;50.720;7.452;2022-12-26T04:15:31;98874.91;;;11.36;100.00
30554;BME280;17335;50.720;7.452;2022-12-26T04:18:21;98893.38;;;11.39;100.00
30554;BME280;17335;50.720;7.452;2022-12-26T04:21:50;98905.97;;;11.39;100.00
30554;BME280;17335;50.720;7.452;2022-12-26T04:24:47;98899.09;;;11.36;100.00
30554;BME280;17335;50.720;7.452;2022-12-26T04:27:34;98909.84;;;11.36;100.00
30554;BME280;17335;50.720;7.452;2022-12-26T04:30:20;98905.97;;;11.39;100.00
30554;BME280;17335;50.720;7.452;2022-12-26T04:33:10;98902.09;;;11.33;100.00
30554;BME280;17335;50.720;7.452;2022-12-26T04:36:07;98902.41;;;11.30;100.00
30554;BME280;17335;50.720;7.452;2022-12-26T04:38:57;98903.41;;;11.29;100.00
30554;BME280;17335;50.720;7.452;2022-12-26T04:41:45;98894.13;;;11.23;100.00
30554;BME280;17335;50.720;7.452;2022-12-26T04:44:33;98905.56;;;11.25;100.00
30554;BME280;17335;50.720;7.452;2022-12-26T04:47:00;98892.34;;;11.32;100.00
30554;BME280;17335;50.720;7.452;2022-12-26T04:49:27;98911.31;;;11.31;100.00
30554;BME280;17335;50.720;7.452;2022-12-26T04:52:13;98906.59;;;11.24;100.00
30554;BME280;17335;50.720;7.452;2022-12-26T04:54:41;98890.47;;;11.24;100.00
30554;BME280;17335;50.720;7.452;2022-12-26T04:57:07;98896.81;;;11.23;100.00
30554;BME280;17335;50.720;7.452;2022-12-26T04:59:34;98905.56;;;11.25;100.00
30554;BME280;17335;50.720;7.452;2022-12-26T05:02:01;98919.88;;;11.26;100.00
30554;BME280;17335;50.720;7.452;2022-12-26T05:04:47;98925.03;;;11.19;100.00
30554;BME280;17335;50.720;7.452;2022-12-26T05:07:34;98920.66;;;11.18;100.00
30554;BME280;17335;50.720;7.452;2022-12-26T05:10:22;98927.38;;;11.22;100.00
30554;BME280;17335;50.720;7.452;2022-12-26T05:12:52;98919.88;;;11.26;100.00
30554;BME280;17335;50.720;7.452;2022-12-26T05:15:19;98909.13;;;11.26;100.00
30554;BME280;17335;50.720;7.452;2022-12-26T05:17:46;98907.88;;;11.20;100.00
30554;BME280;17335;50.720;7.452;2022-12-26T05:20:30;98898.72;;;11.05;100.00
30554;BME280;17335;50.720;7.452;2022-12-26T05:23:22;98902.16;;;11.15;100.00
30554;BME280;17335;50.720;7.452;2022-12-26T05:26:14;98903.31;;;11.13;100.00
30554;BME280;17335;50.720;7.452;2022-12-26T05:29:01;98909.53;;;11.13;100.00
30554;BME280;17335;50.720;7.452;2022-12-26T05:31:29;98922.38;;;11.01;100.00
30554;BME280;17335;50.720;7.452;2022-12-26T05:34:02;98911.03;;;11.07;100.00
30554;BME280;17335;50.720;7.452;2022-12-26T05:36:48;98901.72;;;11.02;100.00
30554;BME280;17335;50.720;7.452;2022-12-26T05:39:15;98901.06;;;11.00;100.00
30554;BME280;17335;50.720;7.452;2022-12-26T05:41:42;98899.03;;;10.94;100.00
30554;BME280;17335;50.720;7.452;2022-12-26T05:44:09;98897.84;;;10.96;100.00
30554;BME280;17335;50.720;7.452;2022-12-26T05:46:36;98904.38;;;10.94;100.00
30554;BME280;17335;50.720;7.452;2022-12-26T05:49:05;98905.38;;;10.93;100.00
30554;BME280;17335;50.720;7.452;2022-12-26T05:51:31;98910.06;;;10.91;100.00
30554;BME280;17335;50.720;7.452;2022-12-26T05:53:58;98907.84;;;10.86;100.00
30554;BME280;17335;50.720;7.452;2022-12-26T05:56:25;98908.88;;;10.85;100.00
30554;BME280;17335;50.720;7.452;2022-12-26T05:58:57;98906.84;;;10.87;100.00
30554;BME280;17335;50.720;7.452;2022-12-26T06:01:25;98907.84;;;10.86;100.00
30554;BME280;17335;50.720;7.452;2022-12-26T06:03:55;98918.81;;;10.93;100.00
30554;BME280;17335;50.720;7.452;2022-12-26T06:06:23;98916.56;;;10.88;100.00
30554;BME280;17335;50.720;7.452;2022-12-26T06:08:51;98924.09;;;10.84;100.00
30554;BME280;17335;50.720;7.452;2022-12-26T06:11:19;98913.88;;;10.80;100.00
30554;BME280;17335;50.720;7.452;2022-12-26T06:13:45;98925.91;;;10.76;100.00
30554;BME280;17335;50.720;7.452;2022-12-26T06:16:13;98922.53;;;10.74;100.00
30554;BME280;17335;50.720;7.452;2022-12-26T06:18:40;98929.00;;;10.63;100.00
30554;BME280;17335;50.720;7.452;2022-12-26T06:21:09;98926.53;;;10.69;100.00
30554;BME280;17335;50.720;7.452;2022-12-26T06:23:38;98937.56;;;10.66;100.00
30554;BME280;17335;50.720;7.452;2022-12-26T06:26:05;98935.56;;;10.68;100.00
30554;BME280;17335;50.720;7.452;2022-12-26T06:28:35;98925.28;;;10.64;100.00
30554;BME280;17335;50.720;7.452;2022-12-26T06:31:10;98927.31;;;10.62;100.00
30554;BME280;17335;50.720;7.452;2022-12-26T06:33:37;98930.34;;;10.67;100.00
30554;BME280;17335;50.720;7.452;2022-12-26T06:36:09;98934.06;;;10.66;100.00
30554;BME280;17335;50.720;7.452;2022-12-26T06:38:36;98925.63;;;10.61;100.00
30554;BME280;17335;50.720;7.452;2022-12-26T06:41:11;98931.00;;;10.61;100.00
30554;BME280;17335;50.720;7.452;2022-12-26T06:43:38;98941.50;;;10.54;100.00
30554;BME280;17335;50.720;7.452;2022-12-26T06:46:05;98942.72;;;10.60;100.00
30554;BME280;17335;50.720;7.452;2022-12-26T06:48:33;98943.41;;;10.62;100.00
30554;BME280;17335;50.720;7.452;2022-12-26T06:51:10;98935.66;;;10.59;100.00
30554;BME280;17335;50.720;7.452;2022-12-26T06:53:37;98949.72;;;10.53;100.00
30554;BME280;17335;50.720;7.452;2022-12-26T06:56:26;98955.97;;;10.43;100.00
30554;BME280;17335;50.720;7.452;2022-12-26T06:58:54;98976.97;;;10.30;100.00
30554;BME280;17335;50.720;7.452;2022-12-26T07:01:22;98983.06;;;10.22;100.00
30554;BME280;17335;50.720;7.452;2022-12-26T07:03:51;99002.69;;;10.23;100.00
30554;BME280;17335;50.720;7.452;2022-12-26T07:06:29;99016.56;;;10.18;100.00
30554;BME280;17335;50.720;7.452;2022-12-26T07:09:02;99009.47;;;10.27;100.00
30554;BME280;17335;50.720;7.452;2022-12-26T07:11:31;99014.16;;;9.97;100.00
30554;BME280;17335;50.720;7.452;2022-12-26T07:13:58;99001.78;;;9.86;100.00
30554;BME280;17335;50.720;7.452;2022-12-26T07:16:25;98990.53;;;9.73;100.00
30554;BME280;17335;50.720;7.452;2022-12-26T07:18:56;99004.41;;;9.68;100.00
30554;BME280;17335;50.720;7.452;2022-12-26T07:21:24;99018.53;;;9.61;100.00
30554;BME280;17335;50.720;7.452;2022-12-26T07:23:52;99004.97;;;9.62;100.00
30554;BME280;17335;50.720;7.452;2022-12-26T07:26:18;99008.13;;;9.57;100.00
30554;BME280;17335;50.720;7.452;2022-12-26T07:28:45;99011.53;;;9.50;100.00
30554;BME280;17335;50.720;7.452;2022-12-26T07:31:16;99025.66;;;9.42;100.00
30554;BME280;17335;50.720;7.452;2022-12-26T07:33:49;99037.50;;;9.39;100.00
30554;BME280;17335;50.720;7.452;2022-12-26T07:36:16;99046.81;;;9.35;100.00
30554;BME280;17335;50.720;7.452;2022-12-26T07:38:43;99047.66;;;9.36;100.00
30554;BME280;17335;50.720;7.452;2022-12-26T07:41:10;99052.19;;;9.35;100.00
30554;BME280;17335;50.720;7.452;2022-12-26T07:43:55;99059.06;;;9.28;100.00
30554;BME280;17335;50.720;7.452;2022-12-26T07:46:22;99055.97;;;9.23;100.00
30554;BME280;17335;50.720;7.452;2022-12-26T07:48:48;99050.78;;;9.22;100.00
30554;BME280;17335;50.720;7.452;2022-12-26T07:51:15;99051.91;;;9.19;100.00
30554;BME280;17335;50.720;7.452;2022-12-26T07:53:41;99047.13;;;9.23;100.00
30554;BME280;17335;50.720;7.452;2022-12-26T07:56:08;99055.84;;;9.25;100.00
30554;BME280;17335;50.720;7.452;2022-12-26T07:58:34;99045.13;;;9.25;100.00
30554;BME280;17335;50.720;7.452;2022-12-26T08:01:02;99049.94;;;9.21;100.00
30554;BME280;17335;50.720;7.452;2022-12-26T08:03:29;99058.66;;;9.23;100.00
30554;BME280;17335;50.720;7.452;2022-12-26T08:05:55;99054.31;;;9.22;100.00
30554;BME280;17335;50.720;7.452;2022-12-26T08:08:22;99043.31;;;9.15;100.00
30554;BME280;17335;50.720;7.452;2022-12-26T08:10:57;99064.59;;;9.17;100.00
30554;BME280;17335;50.720;7.452;2022-12-26T08:13:23;99066.00;;;9.21;100.00
30554;BME280;17335;50.720;7.452;2022-12-26T08:15:50;99075.88;;;9.30;100.00
30554;BME280;17335;50.720;7.452;2022-12-26T08:18:16;99072.78;;;9.25;100.00
30554;BME280;17335;50.720;7.452;2022-12-26T08:20:43;99078.84;;;9.27;100.00
30554;BME280;17335;50.720;7.452;2022-12-26T08:23:09;99076.38;;;9.44;100.00
30554;BME280;17335;50.720;7.452;2022-12-26T08:25:36;99075.25;;;9.56;100.00
30554;BME280;17335;50.720;7.452;2022-12-26T08:28:03;99106.94;;;9.70;100.00
30554;BME280;17335;50.720;7.452;2022-12-26T08:30:29;99114.97;;;9.80;100.00
30554;BME280;17335;50.720;7.452;2022-12-26T08:32:58;99100.81;;;9.88;100.00
30554;BME280;17335;50.720;7.452;2022-12-26T08:35:25;99079.78;;;9.93;100.00
30554;BME280;17335;50.720;7.452;2022-12-26T08:37:51;99089.25;;;9.97;100.00
30554;BME280;17335;50.720;7.452;2022-12-26T08:40:18;99087.72;;;9.85;100.00
30554;BME280;17335;50.720;7.452;2022-12-26T08:43:04;99107.19;;;9.87;100.00
30554;BME280;17335;50.720;7.452;2022-12-26T08:46:07;99094.34;;;9.90;100.00
30554;BME280;17335;50.720;7.452;2022-12-26T08:48:34;99092.66;;;9.89;100.00
30554;BME280;17335;50.720;7.452;2022-12-26T08:51:13;99074.09;;;10.06;100.00
30554;BME280;17335;50.720;7.452;2022-12-26T08:53:40;99078.59;;;10.05;100.00
30554;BME280;17335;50.720;7.452;2022-12-26T08:56:10;99077.63;;;10.06;100.00
30554;BME280;17335;50.720;7.452;2022-12-26T08:58:37;99089.31;;;10.05;100.00
30554;BME280;17335;50.720;7.452;2022-12-26T09:01:15;99090.34;;;10.04;100.00
30554;BME280;17335;50.720;7.452;2022-12-26T09:03:43;99103.59;;;10.06;100.00
30554;BME280;17335;50.720;7.452;2022-12-26T09:06:11;99110.09;;;10.03;100.00
30554;BME280;17335;50.720;7.452;2022-12-26T09:08:39;99109.53;;;10.00;100.00
30554;BME280;17335;50.720;7.452;2022-12-26T09:11:10;99113.25;;;9.89;100.00
30554;BME280;17335;50.720;7.452;2022-12-26T09:13:38;99125.38;;;9.93;100.00
30554;BME280;17335;50.720;7.452;2022-12-26T09:16:05;99116.34;;;9.94;100.00
30554;BME280;17335;50.720;7.452;2022-12-26T09:18:32;99113.53;;;9.95;100.00
30554;BME280;17335;50.720;7.452;2022-12-26T09:21:00;99121.09;;;10.00;100.00
30554;BME280;17335;50.720;7.452;2022-12-26T09:23:27;99112.47;;;10.06;100.00
30554;BME280;17335;50.720;7.452;2022-12-26T09:25:54;99119.91;;;10.12;100.00
30554;BME280;17335;50.720;7.452;2022-12-26T09:28:21;99115.03;;;10.08;100.00
30554;BME280;17335;50.720;7.452;2022-12-26T09:30:47;99119.09;;;10.12;100.00
30554;BME280;17335;50.720;7.452;2022-12-26T09:33:14;99123.00;;;10.18;100.00
30554;BME280;17335;50.720;7.452;2022-12-26T09:35:41;99134.53;;;10.28;100.00
30554;BME280;17335;50.720;7.452;2022-12-26T09:38:07;99129.19;;;10.28;100.00
30554;BME280;17335;50.720;7.452;2022-12-26T09:40:53;99133.41;;;10.40;100.00
30554;BME280;17335;50.720;7.452;2022-12-26T09:49:34;99136.50;;;10.45;100.00
30554;BME280;17335;50.720;7.452;2022-12-26T09:52:10;99137.88;;;10.49;100.00
30554;BME280;17335;50.720;7.452;2022-12-26T09:55:06;99157.06;;;10.55;100.00
30554;BME280;17335;50.720;7.452;2022-12-26T09:57:46;99156.38;;;10.53;100.00
30554;BME280;17335;50.720;7.452;2022-12-26T10:00:19;99150.59;;;10.47;100.00
30554;BME280;17335;50.720;7.452;2022-12-26T10:02:50;99144.06;;;10.50;100.00
30554;BME280;17335;50.720;7.452;2022-12-26T10:05:19;99130.75;;;10.58;100.00
30554;BME280;17335;50.720;7.452;2022-12-26T10:08:22;99146.53;;;10.71;100.00
30554;BME280;17335;50.720;7.452;2022-12-26T10:13:31;99146.97;;;10.84;100.00
30554;BME280;17335;50.720;7.452;2022-12-26T10:16:35;99150.78;;;10.92;100.00
30554;BME280;17335;50.720;7.452;2022-12-26T10:19:27;99146.25;;;10.92;100.00
30554;BME280;17335;50.720;7.452;2022-12-26T10:25:03;99145.47;;;11.00;100.00
30554;BME280;17335;50.720;7.452;2022-12-26T10:27:40;99142.47;;;11.03;100.00
30554;BME280;17335;50.720;7.452;2022-12-26T10:30:15;99138.25;;;11.18;100.00
30554;BME280;17335;50.720;7.452;2022-12-26T10:32:50;99137.72;;;11.15;100.00
30554;BME280;17335;50.720;7.452;2022-12-26T10:37:52;99136.75;;;11.16;100.00
30554;BME280;17335;50.720;7.452;2022-12-26T10:40:38;99137.13;;;11.21;100.00
30554;BME280;17335;50.720;7.452;2022-12-26T10:43:27;99127.81;;;11.15;100.00
30554;BME280;17335;50.720;7.452;2022-12-26T10:48:43;99123.22;;;11.25;100.00
30554;BME280;17335;50.720;7.452;2022-12-26T10:51:10;99126.56;;;11.27;100.00
30554;BME280;17335;50.720;7.452;2022-12-26T10:53:45;99136.34;;;11.29;100.00
30554;BME280;17335;50.720;7.452;2022-12-26T10:56:13;99140.41;;;11.33;100.00
30554;BME280;17335;50.720;7.452;2022-12-26T10:58:44;99120.59;;;11.34;100.00
30554;BME280;17335;50.720;7.452;2022-12-26T11:03:58;99127.34;;;11.38;100.00
30554;BME280;17335;50.720;7.452;2022-12-26T11:06:39;99124.66;;;11.38;100.00
30554;BME280;17335;50.720;7.452;2022-12-26T11:09:33;99133.63;;;11.47;100.00
30554;BME280;17335;50.720;7.452;2022-12-26T11:12:01;99126.50;;;11.55;100.00
30554;BME280;17335;50.720;7.452;2022-12-26T11:14:32;99141.22;;;11.51;100.00
30554;BME280;17335;50.720;7.452;2022-12-26T11:17:10;99143.00;;;11.60;100.00
30554;BME280;17335;50.720;7.452;2022-12-26T11:19:43;99134.38;;;11.57;100.00
30554;BME280;17335;50.720;7.452;2022-12-26T11:22:23;99123.81;;;11.55;100.00
30554;BME280;17335;50.720;7.452;2022-12-26T11:30:21;99132.94;;;11.44;100.00
30554;BME280;17335;50.720;7.452;2022-12-26T11:33:05;99125.38;;;11.40;100.00
30554;BME280;17335;50.720;7.452;2022-12-26T11:35:54;99116.44;;;11.39;100.00
30554;BME280;17335;50.720;7.452;2022-12-26T11:38:22;99120.28;;;11.37;100.00
30554;BME280;17335;50.720;7.452;2022-12-26T11:41:16;99118.13;;;11.40;100.00
30554;BME280;17335;50.720;7.452;2022-12-26T11:49:09;99102.47;;;11.36;100.00
30554;BME280;17335;50.720;7.452;2022-12-26T11:51:46;99099.53;;;11.47;100.00
30554;BME280;17335;50.720;7.452;2022-12-26T11:54:32;99095.81;;;11.40;100.00
30554;BME280;17335;50.720;7.452;2022-12-26T11:59:46;99105.19;;;11.18;100.00
30554;BME280;17335;50.720;7.452;2022-12-26T12:02:20;99098.41;;;11.14;100.00
30554;BME280;17335;50.720;7.452;2022-12-26T12:04:48;99093.38;;;11.11;100.00
30554;BME280;17335;50.720;7.452;2022-12-26T12:13:10;99099.72;;;11.10;100.00
30554;BME280;17335;50.720;7.452;2022-12-26T12:35:33;99092.91;;;11.15;100.00
30554;BME280;17335;50.720;7.452;2022-12-26T12:38:12;99093.91;;;11.14;100.00
30554;BME280;17335;50.720;7.452;2022-12-26T12:43:35;99093.59;;;10.99;100.00
30554;BME280;17335;50.720;7.452;2022-12-26T13:02:31;99098.19;;;10.71;100.00
30554;BME280;17335;50.720;7.452;2022-12-26T13:05:14;99097.63;;;10.67;100.00
30554;BME280;17335;50.720;7.452;2022-12-26T13:07:46;99099.28;;;10.78;100.00
30554;BME280;17335;50.720;7.452;2022-12-26T13:10:22;99102.94;;;10.77;100.00
30554;BME280;17335;50.720;7.452;2022-12-26T13:12:50;99107.78;;;10.74;100.00
30554;BME280;17335;50.720;7.452;2022-12-26T13:15:26;99108.75;;;10.73;100.00
30554;BME280;17335;50.720;7.452;2022-12-26T13:18:09;99108.69;;;10.64;100.00
30554;BME280;17335;50.720;7.452;2022-12-26T13:20:50;99094.25;;;10.65;100.00
30554;BME280;17335;50.720;7.452;2022-12-26T13:23:41;99083.06;;;10.70;100.00
30554;BME280;17335;50.720;7.452;2022-12-26T13:26:40;99095.72;;;10.60;100.00
30554;BME280;17335;50.720;7.452;2022-12-26T13:29:31;99100.84;;;10.53;100.00
30554;BME280;17335;50.720;7.452;2022-12-26T13:31:59;99105.97;;;10.46;100.00
30554;BME280;17335;50.720;7.452;2022-12-26T13:34:27;99109.41;;;10.29;100.00
30554;BME280;17335;50.720;7.452;2022-12-26T13:36:58;99111.25;;;10.28;100.00
30554;BME280;17335;50.720;7.452;2022-12-26T13:41:59;99121.75;;;10.22;100.00
30554;BME280;17335;50.720;7.452;2022-12-26T13:44:45;99106.34;;;10.24;100.00
30554;BME280;17335;50.720;7.452;2022-12-26T13:47:38;99099.44;;;10.21;100.00
30554;BME280;17335;50.720;7.452;2022-12-26T13:53:37;99107.91;;;10.17;100.00
30554;BME280;17335;50.720;7.452;2022-12-26T13:59:16;99109.19;;;10.12;100.00
30554;BME280;17335;50.720;7.452;2022-12-26T14:04:36;99116.28;;;10.04;100.00
30554;BME280;17335;50.720;7.452;2022-12-26T14:10:05;99114.81;;;10.19;100.00
30554;BME280;17335;50.720;7.452;2022-12-26T14:13:10;99106.69;;;10.11;100.00
30554;BME280;17335;50.720;7.452;2022-12-26T14:15:54;99100.06;;;10.05;100.00
30554;BME280;17335;50.720;7.452;2022-12-26T14:23:50;99103.06;;;10.02;100.00
30554;BME280;17335;50.720;7.452;2022-12-26T14:29:01;99096.81;;;10.02;100.00
30554;BME280;17335;50.720;7.452;2022-12-26T14:34:20;99126.19;;;9.93;100.00
30554;BME280;17335;50.720;7.452;2022-12-26T14:37:26;99186.38;;;9.71;100.00
30554;BME280;17335;50.720;7.452;2022-12-26T14:45:40;99195.94;;;8.96;100.00
30554;BME280;17335;50.720;7.452;2022-12-26T14:50:54;99203.78;;;8.68;100.00
30554;BME280;17335;50.720;7.452;2022-12-26T14:58:49;99218.69;;;8.40;100.00
30554;BME280;17335;50.720;7.452;2022-12-26T15:14:51;99228.31;;;8.21;100.00
30554;BME280;17335;50.720;7.452;2022-12-26T15:17:45;99228.31;;;8.21;100.00
30554;BME280;17335;50.720;7.452;2022-12-26T15:31:35;99269.66;;;8.17;100.00
30554;BME280;17335;50.720;7.452;2022-12-26T15:34:29;99278.94;;;8.13;100.00
30554;BME280;17335;50.720;7.452;2022-12-26T15:37:29;99280.16;;;8.09;100.00
30554;BME280;17335;50.720;7.452;2022-12-26T15:48:11;99296.00;;;8.01;100.00
30554;BME280;17335;50.720;7.452;2022-12-26T15:51:30;99299.41;;;8.03;100.00
30554;BME280;17335;50.720;7.452;2022-12-26T15:54:22;99311.56;;;7.96;100.00
30554;BME280;17335;50.720;7.452;2022-12-26T16:05:32;99325.28;;;7.70;100.00
30554;BME280;17335;50.720;7.452;2022-12-26T16:08:14;99331.84;;;7.77;100.00
30554;BME280;17335;50.720;7.452;2022-12-26T16:10:43;99335.97;;;7.70;100.00
30554;BME280;17335;50.720;7.452;2022-12-26T16:15:50;99337.94;;;7.68;100.00
30554;BME280;17335;50.720;7.452;2022-12-26T16:18:24;99347.19;;;7.64;100.00
30554;BME280;17335;50.720;7.452;2022-12-26T16:20:53;99350.56;;;7.66;100.00
30554;BME280;17335;50.720;7.452;2022-12-26T16:23:42;99364.41;;;7.71;100.00
30554;BME280;17335;50.720;7.452;2022-12-26T16:26:24;99370.50;;;7.62;100.00
30554;BME280;17335;50.720;7.452;2022-12-26T16:28:52;99355.69;;;7.58;100.00
30554;BME280;17335;50.720;7.452;2022-12-26T16:31:23;99356.69;;;7.57;100.00
30554;BME280;17335;50.720;7.452;2022-12-26T16:33:53;99356.22;;;7.51;100.00
30554;BME280;17335;50.720;7.452;2022-12-26T16:36:22;99369.06;;;7.58;100.00
30554;BME280;17335;50.720;7.452;2022-12-26T16:38:49;99354.16;;;7.44;100.00
30554;BME280;17335;50.720;7.452;2022-12-26T16:41:24;99365.19;;;7.50;100.00
30554;BME280;17335;50.720;7.452;2022-12-26T16:43:53;99376.84;;;7.49;100.00
30554;BME280;17335;50.720;7.452;2022-12-26T16:46:26;99383.16;;;7.48;100.00